Terminal Aerodrome Forecast
Issued by NWS

Home | Current Version | Previous Version | Graphics & Text | Print | Product List | Glossary Off
Versions: 1 2 3 4 5 6 7 8 9 10 11 12 13 14 15

000
FTUS45 KGGW 270525
TAFGDV
TAF
KGDV 270525Z 2706/2806 09010KT P6SM SCT120
     FM271800 14010KT P6SM BKN100
     FM271900 16010KT P6SM VCTS SCT050CB BKN090
     FM280000 13012KT P6SM SCT120=

USA.gov is the U.S. government's official web portal to all federal, state and local government web resources and services.